sensor_id;sensor_type;location;lat;lon;timestamp;P1;durP1;ratioP1;P2;durP2;ratioP2
12947;SDS011;6539;49.476;8.484;2023-05-10T00:00:29;1.57;;;1.30;;
12947;SDS011;6539;49.476;8.484;2023-05-10T00:02:56;2.20;;;1.20;;
12947;SDS011;6539;49.476;8.484;2023-05-10T00:05:22;1.30;;;1.20;;
12947;SDS011;6539;49.476;8.484;2023-05-10T00:07:48;1.63;;;1.40;;
12947;SDS011;6539;49.476;8.484;2023-05-10T00:10:13;2.00;;;1.60;;
12947;SDS011;6539;49.476;8.484;2023-05-10T00:12:39;1.40;;;1.30;;
12947;SDS011;6539;49.476;8.484;2023-05-10T00:15:08;1.30;;;1.20;;
12947;SDS011;6539;49.476;8.484;2023-05-10T00:17:34;2.00;;;1.20;;
12947;SDS011;6539;49.476;8.484;2023-05-10T00:20:00;2.23;;;1.30;;
12947;SDS011;6539;49.476;8.484;2023-05-10T00:22:26;2.70;;;1.30;;
12947;SDS011;6539;49.476;8.484;2023-05-10T00:24:51;3.63;;;1.30;;
12947;SDS011;6539;49.476;8.484;2023-05-10T00:27:17;1.60;;;1.50;;
12947;SDS011;6539;49.476;8.484;2023-05-10T00:29:43;1.53;;;1.40;;
12947;SDS011;6539;49.476;8.484;2023-05-10T00:32:11;2.17;;;1.60;;
12947;SDS011;6539;49.476;8.484;2023-05-10T00:34:38;5.33;;;1.60;;
12947;SDS011;6539;49.476;8.484;2023-05-10T00:37:07;1.50;;;1.40;;
12947;SDS011;6539;49.476;8.484;2023-05-10T00:39:35;1.70;;;1.60;;
12947;SDS011;6539;49.476;8.484;2023-05-10T00:42:03;3.13;;;2.07;;
12947;SDS011;6539;49.476;8.484;2023-05-10T00:44:29;1.90;;;1.70;;
12947;SDS011;6539;49.476;8.484;2023-05-10T00:46:56;3.33;;;2.20;;
12947;SDS011;6539;49.476;8.484;2023-05-10T00:49:23;1.70;;;1.50;;
12947;SDS011;6539;49.476;8.484;2023-05-10T00:51:49;1.60;;;1.50;;
12947;SDS011;6539;49.476;8.484;2023-05-10T00:54:15;3.03;;;1.77;;
12947;SDS011;6539;49.476;8.484;2023-05-10T00:56:44;4.33;;;2.00;;
12947;SDS011;6539;49.476;8.484;2023-05-10T00:59:16;3.13;;;2.00;;
12947;SDS011;6539;49.476;8.484;2023-05-10T01:01:45;4.40;;;1.80;;
12947;SDS011;6539;49.476;8.484;2023-05-10T01:04:14;1.50;;;1.40;;
12947;SDS011;6539;49.476;8.484;2023-05-10T01:06:40;3.90;;;1.73;;
12947;SDS011;6539;49.476;8.484;2023-05-10T01:12:51;3.27;;;1.60;;
12947;SDS011;6539;49.476;8.484;2023-05-10T01:15:17;3.33;;;1.73;;
12947;SDS011;6539;49.476;8.484;2023-05-10T01:17:47;1.83;;;1.73;;
12947;SDS011;6539;49.476;8.484;2023-05-10T01:20:17;2.20;;;1.90;;
12947;SDS011;6539;49.476;8.484;2023-05-10T01:32:06;3.60;;;1.40;;
12947;SDS011;6539;49.476;8.484;2023-05-10T01:34:46;1.60;;;1.50;;
12947;SDS011;6539;49.476;8.484;2023-05-10T01:37:33;2.40;;;1.50;;
12947;SDS011;6539;49.476;8.484;2023-05-10T01:40:35;2.57;;;1.53;;
12947;SDS011;6539;49.476;8.484;2023-05-10T01:43:17;2.67;;;1.40;;
12947;SDS011;6539;49.476;8.484;2023-05-10T01:45:50;4.47;;;1.40;;
12947;SDS011;6539;49.476;8.484;2023-05-10T01:48:47;2.77;;;1.60;;
12947;SDS011;6539;49.476;8.484;2023-05-10T01:51:19;1.87;;;1.50;;
12947;SDS011;6539;49.476;8.484;2023-05-10T01:53:50;1.93;;;1.50;;
12947;SDS011;6539;49.476;8.484;2023-05-10T01:56:26;1.93;;;1.60;;
12947;SDS011;6539;49.476;8.484;2023-05-10T01:58:58;1.40;;;1.30;;
12947;SDS011;6539;49.476;8.484;2023-05-10T02:01:30;4.43;;;1.50;;
12947;SDS011;6539;49.476;8.484;2023-05-10T02:03:58;2.87;;;1.37;;
12947;SDS011;6539;49.476;8.484;2023-05-10T02:06:29;4.10;;;1.33;;
12947;SDS011;6539;49.476;8.484;2023-05-10T02:08:57;2.93;;;1.53;;
12947;SDS011;6539;49.476;8.484;2023-05-10T02:11:26;1.27;;;1.10;;
12947;SDS011;6539;49.476;8.484;2023-05-10T02:13:54;2.53;;;1.30;;
12947;SDS011;6539;49.476;8.484;2023-05-10T02:16:23;1.43;;;1.20;;
12947;SDS011;6539;49.476;8.484;2023-05-10T02:18:55;2.53;;;1.30;;
12947;SDS011;6539;49.476;8.484;2023-05-10T02:21:31;2.10;;;1.00;;
12947;SDS011;6539;49.476;8.484;2023-05-10T02:23:58;1.97;;;1.20;;
12947;SDS011;6539;49.476;8.484;2023-05-10T02:26:27;3.23;;;1.13;;
12947;SDS011;6539;49.476;8.484;2023-05-10T02:28:58;4.07;;;1.73;;
12947;SDS011;6539;49.476;8.484;2023-05-10T02:31:28;2.37;;;1.70;;
12947;SDS011;6539;49.476;8.484;2023-05-10T02:33:59;2.90;;;1.87;;
12947;SDS011;6539;49.476;8.484;2023-05-10T02:36:28;1.70;;;1.60;;
12947;SDS011;6539;49.476;8.484;2023-05-10T02:38:58;3.80;;;1.80;;
12947;SDS011;6539;49.476;8.484;2023-05-10T02:41:27;1.80;;;1.43;;
12947;SDS011;6539;49.476;8.484;2023-05-10T02:43:56;2.03;;;1.23;;
12947;SDS011;6539;49.476;8.484;2023-05-10T02:46:28;2.80;;;1.40;;
12947;SDS011;6539;49.476;8.484;2023-05-10T02:48:56;2.60;;;1.27;;
12947;SDS011;6539;49.476;8.484;2023-05-10T02:51:24;1.30;;;1.20;;
12947;SDS011;6539;49.476;8.484;2023-05-10T02:53:56;2.37;;;1.43;;
12947;SDS011;6539;49.476;8.484;2023-05-10T02:56:31;3.50;;;1.27;;
12947;SDS011;6539;49.476;8.484;2023-05-10T02:59:01;3.13;;;1.30;;
12947;SDS011;6539;49.476;8.484;2023-05-10T03:01:27;2.37;;;1.30;;
12947;SDS011;6539;49.476;8.484;2023-05-10T03:03:54;3.10;;;1.63;;
12947;SDS011;6539;49.476;8.484;2023-05-10T03:06:25;1.57;;;1.47;;
12947;SDS011;6539;49.476;8.484;2023-05-10T03:08:53;3.30;;;1.70;;
12947;SDS011;6539;49.476;8.484;2023-05-10T03:20:12;2.03;;;1.93;;
12947;SDS011;6539;49.476;8.484;2023-05-10T03:23:00;2.90;;;2.23;;
12947;SDS011;6539;49.476;8.484;2023-05-10T03:26:01;5.47;;;3.00;;
12947;SDS011;6539;49.476;8.484;2023-05-10T03:28:30;4.63;;;2.53;;
12947;SDS011;6539;49.476;8.484;2023-05-10T03:30:59;5.23;;;2.43;;
12947;SDS011;6539;49.476;8.484;2023-05-10T03:33:30;3.80;;;2.20;;
12947;SDS011;6539;49.476;8.484;2023-05-10T03:35:56;3.40;;;2.17;;
12947;SDS011;6539;49.476;8.484;2023-05-10T03:38:22;2.17;;;1.97;;
12947;SDS011;6539;49.476;8.484;2023-05-10T03:40:50;2.30;;;2.10;;
12947;SDS011;6539;49.476;8.484;2023-05-10T03:43:16;3.07;;;2.40;;
12947;SDS011;6539;49.476;8.484;2023-05-10T03:45:42;2.50;;;2.20;;
12947;SDS011;6539;49.476;8.484;2023-05-10T03:48:10;3.27;;;2.33;;
12947;SDS011;6539;49.476;8.484;2023-05-10T03:50:41;2.60;;;2.17;;
12947;SDS011;6539;49.476;8.484;2023-05-10T03:53:07;5.40;;;3.20;;
12947;SDS011;6539;49.476;8.484;2023-05-10T03:55:35;4.03;;;2.50;;
12947;SDS011;6539;49.476;8.484;2023-05-10T03:58:01;5.37;;;3.03;;
12947;SDS011;6539;49.476;8.484;2023-05-10T04:00:27;4.70;;;2.60;;
12947;SDS011;6539;49.476;8.484;2023-05-10T04:02:53;3.17;;;2.77;;
12947;SDS011;6539;49.476;8.484;2023-05-10T04:05:23;3.87;;;2.53;;
12947;SDS011;6539;49.476;8.484;2023-05-10T04:07:49;3.43;;;2.30;;
12947;SDS011;6539;49.476;8.484;2023-05-10T04:10:17;3.83;;;2.47;;
12947;SDS011;6539;49.476;8.484;2023-05-10T04:12:43;2.50;;;2.20;;
12947;SDS011;6539;49.476;8.484;2023-05-10T04:15:11;2.17;;;1.97;;
12947;SDS011;6539;49.476;8.484;2023-05-10T04:17:37;2.40;;;2.10;;
12947;SDS011;6539;49.476;8.484;2023-05-10T04:20:03;4.53;;;2.17;;
12947;SDS011;6539;49.476;8.484;2023-05-10T04:22:29;2.83;;;2.13;;
12947;SDS011;6539;49.476;8.484;2023-05-10T04:24:59;2.40;;;2.00;;
12947;SDS011;6539;49.476;8.484;2023-05-10T04:27:27;6.43;;;2.20;;
12947;SDS011;6539;49.476;8.484;2023-05-10T04:29:58;2.10;;;1.93;;
12947;SDS011;6539;49.476;8.484;2023-05-10T04:32:26;2.17;;;1.97;;
12947;SDS011;6539;49.476;8.484;2023-05-10T04:34:53;2.13;;;1.93;;
12947;SDS011;6539;49.476;8.484;2023-05-10T04:37:21;2.50;;;1.87;;
12947;SDS011;6539;49.476;8.484;2023-05-10T04:39:47;6.00;;;1.80;;
12947;SDS011;6539;49.476;8.484;2023-05-10T04:42:18;3.37;;;2.10;;
12947;SDS011;6539;49.476;8.484;2023-05-10T04:44:43;3.93;;;1.90;;
12947;SDS011;6539;49.476;8.484;2023-05-10T04:47:09;3.63;;;1.77;;
12947;SDS011;6539;49.476;8.484;2023-05-10T04:49:40;2.83;;;1.77;;
12947;SDS011;6539;49.476;8.484;2023-05-10T04:52:10;2.57;;;2.00;;
12947;SDS011;6539;49.476;8.484;2023-05-10T04:54:36;3.30;;;1.80;;
12947;SDS011;6539;49.476;8.484;2023-05-10T04:57:04;1.90;;;1.37;;
12947;SDS011;6539;49.476;8.484;2023-05-10T04:59:30;2.47;;;1.47;;
12947;SDS011;6539;49.476;8.484;2023-05-10T05:01:56;2.37;;;1.57;;
12947;SDS011;6539;49.476;8.484;2023-05-10T05:04:26;2.27;;;2.07;;
12947;SDS011;6539;49.476;8.484;2023-05-10T05:06:52;2.90;;;1.90;;
12947;SDS011;6539;49.476;8.484;2023-05-10T05:09:17;2.33;;;1.80;;
12947;SDS011;6539;49.476;8.484;2023-05-10T05:11:43;2.05;;;1.95;;
12947;SDS011;6539;49.476;8.484;2023-05-10T05:14:09;3.00;;;1.97;;
12947;SDS011;6539;49.476;8.484;2023-05-10T05:16:35;2.00;;;1.80;;
12947;SDS011;6539;49.476;8.484;2023-05-10T05:19:03;2.57;;;2.10;;
12947;SDS011;6539;49.476;8.484;2023-05-10T05:21:28;2.97;;;1.80;;
12947;SDS011;6539;49.476;8.484;2023-05-10T05:23:54;7.53;;;2.30;;
12947;SDS011;6539;49.476;8.484;2023-05-10T05:26:20;3.17;;;2.33;;
12947;SDS011;6539;49.476;8.484;2023-05-10T05:28:46;2.43;;;2.10;;
12947;SDS011;6539;49.476;8.484;2023-05-10T05:31:19;2.50;;;2.30;;
12947;SDS011;6539;49.476;8.484;2023-05-10T05:33:50;2.57;;;2.37;;
12947;SDS011;6539;49.476;8.484;2023-05-10T05:36:18;2.70;;;2.20;;
12947;SDS011;6539;49.476;8.484;2023-05-10T05:38:46;5.07;;;2.30;;
12947;SDS011;6539;49.476;8.484;2023-05-10T05:41:12;2.90;;;2.60;;
12947;SDS011;6539;49.476;8.484;2023-05-10T05:43:38;2.93;;;2.20;;
12947;SDS011;6539;49.476;8.484;2023-05-10T05:46:04;5.47;;;2.90;;
12947;SDS011;6539;49.476;8.484;2023-05-10T05:48:30;2.63;;;2.40;;
12947;SDS011;6539;49.476;8.484;2023-05-10T05:50:56;5.07;;;2.50;;
12947;SDS011;6539;49.476;8.484;2023-05-10T05:53:22;5.43;;;2.60;;
12947;SDS011;6539;49.476;8.484;2023-05-10T05:55:53;2.93;;;2.70;;
12947;SDS011;6539;49.476;8.484;2023-05-10T05:58:25;4.20;;;2.80;;
12947;SDS011;6539;49.476;8.484;2023-05-10T06:00:51;6.93;;;2.93;;
12947;SDS011;6539;49.476;8.484;2023-05-10T06:03:20;3.67;;;2.50;;
12947;SDS011;6539;49.476;8.484;2023-05-10T06:05:48;4.83;;;2.53;;
12947;SDS011;6539;49.476;8.484;2023-05-10T06:08:19;3.07;;;2.77;;
12947;SDS011;6539;49.476;8.484;2023-05-10T06:10:45;4.07;;;2.67;;
12947;SDS011;6539;49.476;8.484;2023-05-10T06:13:11;2.90;;;2.70;;
12947;SDS011;6539;49.476;8.484;2023-05-10T06:15:37;2.57;;;2.37;;
12947;SDS011;6539;49.476;8.484;2023-05-10T06:18:03;3.27;;;2.77;;
12947;SDS011;6539;49.476;8.484;2023-05-10T06:20:29;2.67;;;2.47;;
12947;SDS011;6539;49.476;8.484;2023-05-10T06:22:56;3.17;;;2.97;;
12947;SDS011;6539;49.476;8.484;2023-05-10T06:25:23;3.10;;;2.73;;
12947;SDS011;6539;49.476;8.484;2023-05-10T06:27:48;4.50;;;3.00;;
12947;SDS011;6539;49.476;8.484;2023-05-10T06:30:17;3.77;;;2.90;;
12947;SDS011;6539;49.476;8.484;2023-05-10T06:32:45;5.23;;;2.73;;
12947;SDS011;6539;49.476;8.484;2023-05-10T06:35:13;2.73;;;2.50;;
12947;SDS011;6539;49.476;8.484;2023-05-10T06:37:41;6.47;;;2.63;;
12947;SDS011;6539;49.476;8.484;2023-05-10T06:40:07;3.97;;;2.80;;
12947;SDS011;6539;49.476;8.484;2023-05-10T06:42:34;2.63;;;2.43;;
12947;SDS011;6539;49.476;8.484;2023-05-10T06:44:59;2.73;;;2.53;;
12947;SDS011;6539;49.476;8.484;2023-05-10T06:47:25;2.83;;;2.63;;
12947;SDS011;6539;49.476;8.484;2023-05-10T06:49:53;2.80;;;2.57;;
12947;SDS011;6539;49.476;8.484;2023-05-10T06:52:19;2.97;;;2.67;;
12947;SDS011;6539;49.476;8.484;2023-05-10T06:54:45;2.73;;;2.40;;
12947;SDS011;6539;49.476;8.484;2023-05-10T06:57:13;4.50;;;3.07;;
12947;SDS011;6539;49.476;8.484;2023-05-10T06:59:41;3.10;;;2.80;;
12947;SDS011;6539;49.476;8.484;2023-05-10T07:02:10;3.17;;;2.60;;
12947;SDS011;6539;49.476;8.484;2023-05-10T07:04:36;2.80;;;2.60;;
12947;SDS011;6539;49.476;8.484;2023-05-10T07:07:02;2.93;;;2.73;;
12947;SDS011;6539;49.476;8.484;2023-05-10T07:09:30;3.47;;;2.50;;
12947;SDS011;6539;49.476;8.484;2023-05-10T07:11:56;5.63;;;2.70;;
12947;SDS011;6539;49.476;8.484;2023-05-10T07:14:25;3.70;;;3.30;;
12947;SDS011;6539;49.476;8.484;2023-05-10T07:16:50;5.53;;;2.87;;
12947;SDS011;6539;49.476;8.484;2023-05-10T07:19:18;2.80;;;2.40;;
12947;SDS011;6539;49.476;8.484;2023-05-10T07:21:46;4.07;;;2.43;;
12947;SDS011;6539;49.476;8.484;2023-05-10T07:24:15;3.40;;;2.47;;
12947;SDS011;6539;49.476;8.484;2023-05-10T07:26:43;2.60;;;2.40;;
12947;SDS011;6539;49.476;8.484;2023-05-10T07:29:11;2.03;;;1.83;;
12947;SDS011;6539;49.476;8.484;2023-05-10T07:31:37;2.47;;;1.80;;
12947;SDS011;6539;49.476;8.484;2023-05-10T07:34:02;1.97;;;1.80;;
12947;SDS011;6539;49.476;8.484;2023-05-10T07:36:33;3.43;;;2.10;;
12947;SDS011;6539;49.476;8.484;2023-05-10T07:38:59;2.70;;;1.90;;
12947;SDS011;6539;49.476;8.484;2023-05-10T07:41:25;3.17;;;2.10;;
12947;SDS011;6539;49.476;8.484;2023-05-10T07:43:53;3.07;;;2.77;;
12947;SDS011;6539;49.476;8.484;2023-05-10T07:46:19;4.83;;;1.90;;
12947;SDS011;6539;49.476;8.484;2023-05-10T07:48:45;2.43;;;1.97;;
12947;SDS011;6539;49.476;8.484;2023-05-10T07:51:14;2.00;;;1.90;;
12947;SDS011;6539;49.476;8.484;2023-05-10T07:53:44;1.97;;;1.80;;
12947;SDS011;6539;49.476;8.484;2023-05-10T07:56:23;2.93;;;2.63;;
12947;SDS011;6539;49.476;8.484;2023-05-10T07:58:52;2.57;;;2.37;;
12947;SDS011;6539;49.476;8.484;2023-05-10T08:01:22;2.60;;;2.37;;
12947;SDS011;6539;49.476;8.484;2023-05-10T08:03:48;3.30;;;2.20;;
12947;SDS011;6539;49.476;8.484;2023-05-10T08:06:16;2.07;;;1.70;;
12947;SDS011;6539;49.476;8.484;2023-05-10T08:08:46;1.90;;;1.80;;
12947;SDS011;6539;49.476;8.484;2023-05-10T08:11:18;4.43;;;2.13;;
12947;SDS011;6539;49.476;8.484;2023-05-10T08:13:48;1.73;;;1.53;;
12947;SDS011;6539;49.476;8.484;2023-05-10T08:16:16;2.70;;;2.03;;
12947;SDS011;6539;49.476;8.484;2023-05-10T08:18:43;2.07;;;1.90;;
12947;SDS011;6539;49.476;8.484;2023-05-10T08:21:10;2.20;;;2.00;;
12947;SDS011;6539;49.476;8.484;2023-05-10T08:23:39;2.23;;;2.03;;
12947;SDS011;6539;49.476;8.484;2023-05-10T08:26:10;4.67;;;2.00;;
12947;SDS011;6539;49.476;8.484;2023-05-10T08:28:39;2.77;;;1.90;;
12947;SDS011;6539;49.476;8.484;2023-05-10T08:31:07;1.80;;;1.70;;
12947;SDS011;6539;49.476;8.484;2023-05-10T08:33:32;1.73;;;1.63;;
12947;SDS011;6539;49.476;8.484;2023-05-10T08:36:00;5.50;;;2.13;;
12947;SDS011;6539;49.476;8.484;2023-05-10T08:38:26;2.77;;;1.40;;
12947;SDS011;6539;49.476;8.484;2023-05-10T08:40:55;2.90;;;1.60;;
12947;SDS011;6539;49.476;8.484;2023-05-10T08:43:26;2.80;;;1.70;;
12947;SDS011;6539;49.476;8.484;2023-05-10T08:45:56;3.93;;;1.57;;
12947;SDS011;6539;49.476;8.484;2023-05-10T08:48:29;1.50;;;1.30;;
12947;SDS011;6539;49.476;8.484;2023-05-10T08:50:55;3.57;;;1.40;;
12947;SDS011;6539;49.476;8.484;2023-05-10T08:53:28;1.63;;;1.10;;
12947;SDS011;6539;49.476;8.484;2023-05-10T08:56:05;2.60;;;1.57;;
12947;SDS011;6539;49.476;8.484;2023-05-10T08:58:31;1.80;;;1.37;;
12947;SDS011;6539;49.476;8.484;2023-05-10T09:00:57;2.57;;;1.37;;
12947;SDS011;6539;49.476;8.484;2023-05-10T09:03:26;2.47;;;2.03;;
12947;SDS011;6539;49.476;8.484;2023-05-10T09:05:55;2.30;;;1.40;;
12947;SDS011;6539;49.476;8.484;2023-05-10T09:08:23;1.63;;;1.20;;
12947;SDS011;6539;49.476;8.484;2023-05-10T09:10:50;3.10;;;2.30;;
12947;SDS011;6539;49.476;8.484;2023-05-10T09:13:18;3.73;;;1.90;;
12947;SDS011;6539;49.476;8.484;2023-05-10T09:15:48;1.53;;;1.40;;
12947;SDS011;6539;49.476;8.484;2023-05-10T09:18:17;2.03;;;1.40;;
12947;SDS011;6539;49.476;8.484;2023-05-10T09:20:46;2.57;;;1.80;;
12947;SDS011;6539;49.476;8.484;2023-05-10T09:23:11;2.87;;;1.90;;
12947;SDS011;6539;49.476;8.484;2023-05-10T09:25:37;2.20;;;2.00;;
12947;SDS011;6539;49.476;8.484;2023-05-10T09:28:09;2.20;;;2.00;;
12947;SDS011;6539;49.476;8.484;2023-05-10T09:30:36;4.83;;;2.97;;
12947;SDS011;6539;49.476;8.484;2023-05-10T09:33:05;1.97;;;1.77;;
12947;SDS011;6539;49.476;8.484;2023-05-10T09:35:31;1.53;;;1.43;;
12947;SDS011;6539;49.476;8.484;2023-05-10T09:38:03;2.43;;;1.63;;
12947;SDS011;6539;49.476;8.484;2023-05-10T09:40:35;2.37;;;1.40;;
12947;SDS011;6539;49.476;8.484;2023-05-10T09:43:01;1.47;;;1.37;;
12947;SDS011;6539;49.476;8.484;2023-05-10T09:45:34;2.73;;;1.40;;
12947;SDS011;6539;49.476;8.484;2023-05-10T09:48:01;3.47;;;1.40;;
12947;SDS011;6539;49.476;8.484;2023-05-10T09:50:28;1.30;;;1.20;;
12947;SDS011;6539;49.476;8.484;2023-05-10T09:52:59;4.73;;;1.47;;
12947;SDS011;6539;49.476;8.484;2023-05-10T09:55:41;2.33;;;1.60;;
12947;SDS011;6539;49.476;8.484;2023-05-10T09:58:14;1.90;;;1.03;;
12947;SDS011;6539;49.476;8.484;2023-05-10T10:00:41;2.80;;;1.00;;
12947;SDS011;6539;49.476;8.484;2023-05-10T10:03:18;2.00;;;1.30;;
12947;SDS011;6539;49.476;8.484;2023-05-10T10:05:48;1.73;;;1.30;;
12947;SDS011;6539;49.476;8.484;2023-05-10T10:08:16;2.30;;;1.50;;
12947;SDS011;6539;49.476;8.484;2023-05-10T10:10:43;2.60;;;1.10;;
12947;SDS011;6539;49.476;8.484;2023-05-10T10:13:13;1.43;;;1.00;;
12947;SDS011;6539;49.476;8.484;2023-05-10T10:15:40;1.83;;;1.10;;
12947;SDS011;6539;49.476;8.484;2023-05-10T10:18:12;3.03;;;1.00;;
12947;SDS011;6539;49.476;8.484;2023-05-10T10:20:41;1.00;;;1.00;;
12947;SDS011;6539;49.476;8.484;2023-05-10T10:23:07;1.73;;;1.27;;
12947;SDS011;6539;49.476;8.484;2023-05-10T10:25:33;2.27;;;1.30;;
12947;SDS011;6539;49.476;8.484;2023-05-10T10:28:04;2.33;;;1.33;;
12947;SDS011;6539;49.476;8.484;2023-05-10T10:30:46;2.33;;;1.90;;
12947;SDS011;6539;49.476;8.484;2023-05-10T10:36:15;3.20;;;1.60;;
12947;SDS011;6539;49.476;8.484;2023-05-10T10:41:29;3.20;;;1.40;;
12947;SDS011;6539;49.476;8.484;2023-05-10T10:47:04;1.43;;;1.33;;
12947;SDS011;6539;49.476;8.484;2023-05-10T10:49:50;1.80;;;1.33;;
12947;SDS011;6539;49.476;8.484;2023-05-10T10:55:05;2.43;;;1.30;;
12947;SDS011;6539;49.476;8.484;2023-05-10T11:02:45;1.30;;;1.20;;
12947;SDS011;6539;49.476;8.484;2023-05-10T11:13:29;1.03;;;1.03;;
12947;SDS011;6539;49.476;8.484;2023-05-10T11:18:51;4.00;;;1.10;;
12947;SDS011;6539;49.476;8.484;2023-05-10T11:21:27;0.80;;;0.80;;
12947;SDS011;6539;49.476;8.484;2023-05-10T11:23:58;1.50;;;1.00;;
12947;SDS011;6539;49.476;8.484;2023-05-10T11:26:31;3.20;;;1.00;;
12947;SDS011;6539;49.476;8.484;2023-05-10T11:29:02;1.07;;;0.97;;
12947;SDS011;6539;49.476;8.484;2023-05-10T11:31:29;1.83;;;0.90;;
12947;SDS011;6539;49.476;8.484;2023-05-10T11:33:56;3.03;;;1.03;;
12947;SDS011;6539;49.476;8.484;2023-05-10T11:36:27;4.10;;;1.37;;
12947;SDS011;6539;49.476;8.484;2023-05-10T11:38:58;2.73;;;1.10;;
12947;SDS011;6539;49.476;8.484;2023-05-10T11:41:29;2.60;;;1.20;;
12947;SDS011;6539;49.476;8.484;2023-05-10T11:43:56;1.13;;;0.93;;
12947;SDS011;6539;49.476;8.484;2023-05-10T11:46:26;2.10;;;1.13;;
12947;SDS011;6539;49.476;8.484;2023-05-10T11:49:00;2.60;;;0.90;;
12947;SDS011;6539;49.476;8.484;2023-05-10T11:51:29;1.07;;;0.80;;
12947;SDS011;6539;49.476;8.484;2023-05-10T11:54:00;2.43;;;1.10;;
12947;SDS011;6539;49.476;8.484;2023-05-10T11:56:31;4.63;;;1.20;;
12947;SDS011;6539;49.476;8.484;2023-05-10T11:59:00;2.30;;;0.97;;
12947;SDS011;6539;49.476;8.484;2023-05-10T12:01:27;2.57;;;1.10;;
12947;SDS011;6539;49.476;8.484;2023-05-10T12:03:56;2.47;;;1.43;;
12947;SDS011;6539;49.476;8.484;2023-05-10T12:06:29;3.67;;;1.33;;
12947;SDS011;6539;49.476;8.484;2023-05-10T12:09:06;2.70;;;1.20;;
12947;SDS011;6539;49.476;8.484;2023-05-10T12:11:35;2.70;;;1.03;;
12947;SDS011;6539;49.476;8.484;2023-05-10T12:14:04;2.63;;;1.10;;
12947;SDS011;6539;49.476;8.484;2023-05-10T12:16:31;1.43;;;1.33;;
12947;SDS011;6539;49.476;8.484;2023-05-10T12:18:58;1.57;;;1.10;;
12947;SDS011;6539;49.476;8.484;2023-05-10T12:21:25;5.13;;;1.00;;
12947;SDS011;6539;49.476;8.484;2023-05-10T12:23:59;1.60;;;0.90;;
12947;SDS011;6539;49.476;8.484;2023-05-10T12:26:29;4.23;;;1.40;;
12947;SDS011;6539;49.476;8.484;2023-05-10T12:29:11;2.83;;;1.10;;
12947;SDS011;6539;49.476;8.484;2023-05-10T12:31:58;2.60;;;1.00;;
12947;SDS011;6539;49.476;8.484;2023-05-10T12:34:34;0.93;;;0.83;;
12947;SDS011;6539;49.476;8.484;2023-05-10T12:37:01;4.30;;;1.10;;
12947;SDS011;6539;49.476;8.484;2023-05-10T12:39:40;2.40;;;1.00;;
12947;SDS011;6539;49.476;8.484;2023-05-10T12:42:08;3.53;;;1.17;;
12947;SDS011;6539;49.476;8.484;2023-05-10T12:44:35;3.83;;;1.27;;
12947;SDS011;6539;49.476;8.484;2023-05-10T12:47:04;3.47;;;1.20;;
12947;SDS011;6539;49.476;8.484;2023-05-10T12:49:30;1.50;;;1.10;;
12947;SDS011;6539;49.476;8.484;2023-05-10T12:51:56;3.60;;;1.20;;
12947;SDS011;6539;49.476;8.484;2023-05-10T12:54:24;1.00;;;1.00;;
12947;SDS011;6539;49.476;8.484;2023-05-10T12:56:50;3.67;;;1.20;;
12947;SDS011;6539;49.476;8.484;2023-05-10T12:59:19;1.80;;;1.17;;
12947;SDS011;6539;49.476;8.484;2023-05-10T13:01:44;3.50;;;1.33;;
12947;SDS011;6539;49.476;8.484;2023-05-10T13:04:10;2.77;;;1.40;;
12947;SDS011;6539;49.476;8.484;2023-05-10T13:06:36;3.03;;;1.37;;
12947;SDS011;6539;49.476;8.484;2023-05-10T13:09:02;1.57;;;1.10;;
12947;SDS011;6539;49.476;8.484;2023-05-10T13:11:27;2.20;;;1.00;;
12947;SDS011;6539;49.476;8.484;2023-05-10T13:13:58;2.97;;;1.07;;
12947;SDS011;6539;49.476;8.484;2023-05-10T13:16:24;4.90;;;1.77;;
12947;SDS011;6539;49.476;8.484;2023-05-10T13:18:50;0.97;;;0.87;;
12947;SDS011;6539;49.476;8.484;2023-05-10T13:21:20;2.93;;;1.47;;
12947;SDS011;6539;49.476;8.484;2023-05-10T13:23:49;2.50;;;1.10;;
12947;SDS011;6539;49.476;8.484;2023-05-10T13:26:15;2.57;;;0.90;;
12947;SDS011;6539;49.476;8.484;2023-05-10T13:28:43;3.30;;;1.20;;
12947;SDS011;6539;49.476;8.484;2023-05-10T13:31:10;3.33;;;1.10;;
12947;SDS011;6539;49.476;8.484;2023-05-10T13:33:41;1.67;;;1.20;;
12947;SDS011;6539;49.476;8.484;2023-05-10T13:36:06;3.07;;;1.20;;
12947;SDS011;6539;49.476;8.484;2023-05-10T13:38:32;1.80;;;0.90;;
12947;SDS011;6539;49.476;8.484;2023-05-10T13:40:58;1.00;;;1.00;;
12947;SDS011;6539;49.476;8.484;2023-05-10T13:43:24;4.30;;;1.10;;
12947;SDS011;6539;49.476;8.484;2023-05-10T13:45:50;2.17;;;1.07;;
12947;SDS011;6539;49.476;8.484;2023-05-10T13:48:15;3.93;;;1.20;;
12947;SDS011;6539;49.476;8.484;2023-05-10T13:50:42;1.87;;;0.90;;
12947;SDS011;6539;49.476;8.484;2023-05-10T13:53:08;2.27;;;1.10;;
12947;SDS011;6539;49.476;8.484;2023-05-10T13:55:34;1.13;;;0.90;;
12947;SDS011;6539;49.476;8.484;2023-05-10T13:58:00;1.17;;;0.63;;
12947;SDS011;6539;49.476;8.484;2023-05-10T14:00:26;0.90;;;0.90;;
12947;SDS011;6539;49.476;8.484;2023-05-10T14:02:52;2.00;;;1.03;;
12947;SDS011;6539;49.476;8.484;2023-05-10T14:05:18;2.43;;;1.00;;
12947;SDS011;6539;49.476;8.484;2023-05-10T14:07:44;1.50;;;1.00;;
12947;SDS011;6539;49.476;8.484;2023-05-10T14:10:12;1.23;;;1.00;;
12947;SDS011;6539;49.476;8.484;2023-05-10T14:12:38;2.17;;;0.90;;
12947;SDS011;6539;49.476;8.484;2023-05-10T14:15:06;1.13;;;0.70;;
12947;SDS011;6539;49.476;8.484;2023-05-10T14:17:36;0.73;;;0.60;;
12947;SDS011;6539;49.476;8.484;2023-05-10T14:20:02;1.77;;;0.80;;
12947;SDS011;6539;49.476;8.484;2023-05-10T14:22:31;0.77;;;0.73;;
12947;SDS011;6539;49.476;8.484;2023-05-10T14:24:57;2.13;;;1.00;;
12947;SDS011;6539;49.476;8.484;2023-05-10T14:27:25;2.10;;;0.70;;
12947;SDS011;6539;49.476;8.484;2023-05-10T14:29:51;3.23;;;0.90;;
12947;SDS011;6539;49.476;8.484;2023-05-10T14:32:19;2.93;;;1.00;;
12947;SDS011;6539;49.476;8.484;2023-05-10T14:34:47;1.97;;;0.90;;
12947;SDS011;6539;49.476;8.484;2023-05-10T14:37:13;2.67;;;0.93;;
12947;SDS011;6539;49.476;8.484;2023-05-10T14:39:41;2.37;;;0.90;;
12947;SDS011;6539;49.476;8.484;2023-05-10T14:42:07;1.60;;;1.00;;
12947;SDS011;6539;49.476;8.484;2023-05-10T14:44:36;0.93;;;0.70;;
12947;SDS011;6539;49.476;8.484;2023-05-10T14:47:04;1.63;;;0.70;;
12947;SDS011;6539;49.476;8.484;2023-05-10T14:49:30;0.83;;;0.77;;
12947;SDS011;6539;49.476;8.484;2023-05-10T14:52:01;2.43;;;1.27;;
12947;SDS011;6539;49.476;8.484;2023-05-10T14:54:26;2.23;;;1.00;;
12947;SDS011;6539;49.476;8.484;2023-05-10T14:56:54;1.70;;;0.90;;
12947;SDS011;6539;49.476;8.484;2023-05-10T14:59:20;3.23;;;0.80;;
12947;SDS011;6539;49.476;8.484;2023-05-10T15:01:46;1.40;;;0.80;;
12947;SDS011;6539;49.476;8.484;2023-05-10T15:04:11;3.83;;;1.10;;
12947;SDS011;6539;49.476;8.484;2023-05-10T15:06:38;1.67;;;1.10;;
12947;SDS011;6539;49.476;8.484;2023-05-10T15:09:04;2.73;;;1.13;;
12947;SDS011;6539;49.476;8.484;2023-05-10T15:11:29;0.93;;;0.73;;
12947;SDS011;6539;49.476;8.484;2023-05-10T15:13:55;2.63;;;0.87;;
12947;SDS011;6539;49.476;8.484;2023-05-10T15:16:23;2.87;;;1.13;;
12947;SDS011;6539;49.476;8.484;2023-05-10T15:18:49;1.17;;;0.87;;
12947;SDS011;6539;49.476;8.484;2023-05-10T15:21:15;3.30;;;1.10;;
12947;SDS011;6539;49.476;8.484;2023-05-10T15:23:41;1.00;;;0.90;;
12947;SDS011;6539;49.476;8.484;2023-05-10T15:26:09;2.60;;;0.90;;
12947;SDS011;6539;49.476;8.484;2023-05-10T15:28:35;3.90;;;1.20;;
12947;SDS011;6539;49.476;8.484;2023-05-10T15:31:03;1.43;;;0.80;;
12947;SDS011;6539;49.476;8.484;2023-05-10T15:33:29;1.90;;;1.00;;
12947;SDS011;6539;49.476;8.484;2023-05-10T15:35:57;2.00;;;0.70;;
12947;SDS011;6539;49.476;8.484;2023-05-10T15:38:23;1.20;;;0.80;;
12947;SDS011;6539;49.476;8.484;2023-05-10T15:40:48;1.50;;;0.67;;
12947;SDS011;6539;49.476;8.484;2023-05-10T15:43:19;1.10;;;0.63;;
12947;SDS011;6539;49.476;8.484;2023-05-10T15:45:45;2.63;;;0.70;;
12947;SDS011;6539;49.476;8.484;2023-05-10T15:48:14;2.03;;;0.80;;
12947;SDS011;6539;49.476;8.484;2023-05-10T15:50:40;4.50;;;1.53;;
12947;SDS011;6539;49.476;8.484;2023-05-10T15:53:08;1.27;;;0.83;;
12947;SDS011;6539;49.476;8.484;2023-05-10T15:55:34;1.47;;;0.90;;
12947;SDS011;6539;49.476;8.484;2023-05-10T15:57:59;6.00;;;1.13;;